Tyrone, NY

4:59 PM EDT on September 30, 2014 (GMT -0400)
Tompkins County | Change Station
CLOSE
Current Station
Airport
Location: Ithaca,
Elevation: 1099 ft
Nearby Weather Stations

Elev 1099 ft 42.49 °N, 76.46 °W | Updated 1 hour ago

Partly Cloudy
Partly Cloudy
77 °F
Feels Like 77 °F
N
4
Wind Variable Wind from SSE

Today
High -- | Low -- °F
--% Chance of Precip.
Yesterday
High -- | Low -- °F
Precip. -- in
7:04 AM 6:51 PM
Waxing Crescent, 40% visible
Pressure 29.87 in
Visibility 10.0 miles
Clouds Scattered Clouds 5000 ft
Dew Point 56 °F
Humidity 48%
Rainfall 0.00 in
Snow Depth Not available.
UV 2 out of 12
Pollen 2.00 out of 12
Ozone Good
PM2.5 Moderate
Flu Activity Not available.
METAR KITH 301956Z 15003KT 10SM SCT050 25/13 A2988 RMK AO2 T02500133 SLP115

More Conditions Fewer Conditions

Pressure 29.87 in
Visibility 10.0 miles
Clouds Scattered Clouds 5000 ft
Dew Point 56 °F
Humidity 48%
Rainfall 0.00 in
Snow Depth Not available.
UV 2 out of 12
Pollen 2.00 out of 12
Ozone Good
PM2.5 Moderate
Flu Activity Not available.
METAR KITH 301956Z 15003KT 10SM SCT050 25/13 A2988 RMK AO2 T02500133 SLP115

More Conditions Fewer Conditions

Nowcast | as of 3:38 PM EDT on September 30, 2014

Isolated showers and a few thunderstorms will continue across the area through 6 PM. Thunderstorms will be slow moving so rainfall amounts could approach one inch. This amount of rain will not cause flash flooding.

×

10-Day Weather Forecast

Almanac

Astronomy

Sep. 30, 2014 Rise Set
Actual Time 7:04 AM EDT 6:51 PM EDT
Civil Twilight 6:36 AM EDT 7:19 PM EDT
Nautical Twilight 6:03 AM EDT 7:52 PM EDT
Astronomical Twilight 5:30 AM EDT 8:24 PM EDT
Moon 1:15 PM EDT 11:14 PM EDT
Length of Visible Light 12h 43m
Length of Day
11h 47m
Tomorrow will be 2m 51s shorter.
Waxing Crescent, 40% of the Moon is Illuminated
Today
Waxing Crescent
Oct 1
First Quarter
Oct 8
Full
Oct 15
Last Quarter
Oct 23
New

Today's Extremes

State Highs State Lows

Community

WunderPhotos

Upload Photos

1,757,743 photos uploaded!

Nearby

Air Quality

  Air Quality AQ Index Pollutant
Yesterday Good
OZONE
Yesterday Good
PM2.5
Current Moderate
PM2.5
Current Good
OZONE
Tuesday Moderate
PM2.5
Tuesday Good
OZONE
Wednesday Good
PM2.5

Snow Depth

Station Depth Elevation
No new snow has been reported.

Earthquake Activity

City Distance Mag. Time & Date
No recent earthquake activity has been reported nearby.
Minimum magnitude displayed is 2.5.

Coastal Water Temperatures

Place Temperature
No Stations Reporting

Nearby Weather Stations